createdAt,value
2022-11-25T00:00:52.245Z,5.57
2022-11-25T00:03:20.108Z,5.57
2022-11-25T00:05:47.994Z,5.61
2022-11-25T00:08:15.788Z,5.55
2022-11-25T00:10:43.640Z,5.61
2022-11-25T00:13:11.508Z,5.61
2022-11-25T00:15:39.273Z,5.59
2022-11-25T00:18:08.626Z,5.61
2022-11-25T00:20:38.677Z,5.63
2022-11-25T00:23:06.460Z,5.67
2022-11-25T00:25:34.359Z,5.71
2022-11-25T00:28:02.152Z,5.62
2022-11-25T00:30:31.727Z,5.73
2022-11-25T00:32:59.524Z,5.85
2022-11-25T00:35:29.003Z,5.90
2022-11-25T00:37:57.049Z,5.93
2022-11-25T00:40:24.934Z,5.93
2022-11-25T00:43:09.988Z,5.94
2022-11-25T00:45:38.397Z,5.60
2022-11-25T00:48:07.118Z,5.66
2022-11-25T00:50:36.356Z,5.71
2022-11-25T00:53:04.165Z,5.66
2022-11-25T00:55:51.912Z,5.60
2022-11-25T00:58:19.686Z,5.56
2022-11-25T01:00:48.049Z,5.59
2022-11-25T01:03:15.828Z,5.55
2022-11-25T01:05:44.950Z,5.49
2022-11-25T01:08:15.462Z,5.53
2022-11-25T01:10:43.291Z,5.52
2022-11-25T01:13:11.172Z,5.50
2022-11-25T01:15:38.980Z,5.46
2022-11-25T01:18:06.846Z,5.59
2022-11-25T01:20:34.669Z,5.53
2022-11-25T01:23:03.871Z,5.48
2022-11-25T01:25:31.642Z,5.48
2022-11-25T01:28:00.851Z,5.48
2022-11-25T01:30:28.662Z,5.48
2022-11-25T01:32:56.615Z,5.49
2022-11-25T01:35:24.611Z,5.42
2022-11-25T01:37:52.515Z,5.44
2022-11-25T01:40:21.673Z,5.36
2022-11-25T01:42:49.927Z,5.49
2022-11-25T01:45:38.344Z,5.78
2022-11-25T01:48:15.803Z,5.78
2022-11-25T01:50:44.456Z,5.86
2022-11-25T01:53:15.030Z,5.79
2022-11-25T01:55:48.814Z,5.47
2022-11-25T01:58:22.413Z,5.51
2022-11-25T02:00:52.094Z,5.47
2022-11-25T02:03:24.160Z,5.48
2022-11-25T02:05:57.512Z,5.48
2022-11-25T02:08:27.489Z,5.46
2022-11-25T02:10:57.842Z,5.49
2022-11-25T02:13:26.023Z,5.53
2022-11-25T02:15:53.839Z,5.44
2022-11-25T02:18:21.649Z,5.51
2022-11-25T02:20:49.526Z,5.52
2022-11-25T02:23:27.057Z,5.52
2022-11-25T02:25:57.823Z,5.58
2022-11-25T02:28:28.441Z,5.62
2022-11-25T02:30:56.374Z,5.59
2022-11-25T02:33:25.032Z,5.58
2022-11-25T02:35:56.888Z,5.57
2022-11-25T02:38:30.586Z,5.67
2022-11-25T02:41:07.178Z,5.61
2022-11-25T02:43:35.123Z,5.61
2022-11-25T02:46:06.928Z,5.62
2022-11-25T02:49:07.278Z,5.61
2022-11-25T02:51:27.872Z,5.60
2022-11-25T02:53:57.004Z,5.65
2022-11-25T02:56:30.185Z,5.59
2022-11-25T02:58:58.850Z,5.63
2022-11-25T03:01:29.740Z,5.60
2022-11-25T03:03:58.056Z,5.61
2022-11-25T03:06:28.818Z,5.61
2022-11-25T03:08:56.788Z,5.60
2022-11-25T03:11:46.203Z,5.55
2022-11-25T03:14:16.655Z,5.51
2022-11-25T03:16:44.804Z,5.62
2022-11-25T03:19:12.745Z,5.60
2022-11-25T03:21:40.603Z,5.57
2022-11-25T03:24:08.615Z,5.53
2022-11-25T03:26:36.409Z,5.56
2022-11-25T03:29:04.609Z,5.64
2022-11-25T03:31:35.228Z,5.69
2022-11-25T03:34:03.563Z,5.70
2022-11-25T03:36:32.292Z,5.69
2022-11-25T03:39:00.155Z,5.75
2022-11-25T03:41:28.787Z,5.67
2022-11-25T03:43:57.098Z,5.65
2022-11-25T03:46:25.029Z,5.93
2022-11-25T03:48:56.581Z,5.99
2022-11-25T03:51:25.255Z,6.02
2022-11-25T03:53:53.972Z,6.03
2022-11-25T03:56:22.236Z,6.00
2022-11-25T03:58:51.803Z,6.06
2022-11-25T04:01:20.918Z,6.05
2022-11-25T04:03:49.018Z,5.99
2022-11-25T04:06:20.148Z,5.98
2022-11-25T04:08:49.901Z,5.98
2022-11-25T04:11:18.347Z,6.01
2022-11-25T04:13:49.808Z,6.15
2022-11-25T04:16:23.895Z,6.20
2022-11-25T04:18:52.998Z,6.17
2022-11-25T04:21:22.352Z,6.19
2022-11-25T04:23:52.103Z,6.22
2022-11-25T04:26:20.091Z,6.10
2022-11-25T04:28:47.918Z,5.70
2022-11-25T04:31:16.000Z,5.73
2022-11-25T04:33:51.057Z,5.68
2022-11-25T04:36:22.012Z,5.64
2022-11-25T04:38:49.936Z,5.64
2022-11-25T04:41:18.659Z,5.65
2022-11-25T04:43:46.824Z,5.53
2022-11-25T04:46:18.441Z,5.55
2022-11-25T04:48:50.140Z,5.61
2022-11-25T04:51:18.381Z,5.56
2022-11-25T04:53:49.635Z,5.52
2022-11-25T04:56:19.308Z,5.56
2022-11-25T04:59:13.732Z,5.63
2022-11-25T05:01:45.770Z,5.59
2022-11-25T05:04:26.913Z,5.51
2022-11-25T05:06:55.707Z,5.69
2022-11-25T05:09:26.987Z,5.65
2022-11-25T05:12:20.174Z,5.56
2022-11-25T05:14:49.208Z,5.63
2022-11-25T05:17:20.099Z,5.56
2022-11-25T05:19:48.286Z,5.55
2022-11-25T05:22:18.571Z,5.65
2022-11-25T05:24:48.796Z,5.69
2022-11-25T05:27:17.923Z,5.67
2022-11-25T05:29:51.383Z,5.74
2022-11-25T05:32:22.527Z,5.69
2022-11-25T05:34:50.743Z,5.61
2022-11-25T05:37:24.069Z,5.63
2022-11-25T05:39:59.441Z,5.70
2022-11-25T05:42:45.653Z,5.69
2022-11-25T05:45:13.580Z,5.77
2022-11-25T05:47:41.747Z,5.82
2022-11-25T05:50:09.902Z,5.78
2022-11-25T05:52:37.760Z,5.77
2022-11-25T05:55:08.690Z,5.78
2022-11-25T05:57:36.656Z,5.78
2022-11-25T06:00:09.751Z,5.78
2022-11-25T06:02:45.836Z,5.76
2022-11-25T06:05:15.919Z,5.91
2022-11-25T06:07:43.878Z,5.93
2022-11-25T06:10:14.011Z,5.89
2022-11-25T06:12:42.620Z,6.05
2022-11-25T06:15:11.736Z,6.21
2022-11-25T06:17:40.634Z,6.20
2022-11-25T06:20:17.260Z,6.23
2022-11-25T06:22:46.627Z,6.29
2022-11-25T06:25:17.146Z,6.38
2022-11-25T06:28:11.380Z,6.26
2022-11-25T06:30:32.859Z,6.42
2022-11-25T06:33:11.816Z,6.51
2022-11-25T06:35:39.830Z,6.63
2022-11-25T06:38:08.232Z,6.63
2022-11-25T06:40:37.327Z,6.67
2022-11-25T06:43:06.075Z,6.65
2022-11-25T06:45:34.186Z,6.70
2022-11-25T06:48:02.035Z,6.82
2022-11-25T06:50:29.799Z,6.89
2022-11-25T06:52:57.589Z,7.01
2022-11-25T06:55:25.370Z,7.10
2022-11-25T06:58:13.656Z,7.15
2022-11-25T07:00:42.164Z,7.02
2022-11-25T07:03:10.075Z,6.82
2022-11-25T07:05:37.847Z,6.71
2022-11-25T07:08:05.964Z,6.82
2022-11-25T07:10:35.602Z,6.62
2022-11-25T07:13:04.799Z,6.67
2022-11-25T07:15:32.565Z,6.78
2022-11-25T07:18:00.291Z,6.84
2022-11-25T07:20:28.569Z,6.74
2022-11-25T07:22:56.414Z,6.73
2022-11-25T07:25:29.358Z,6.73
2022-11-25T07:27:58.376Z,6.87
2022-11-25T07:31:21.743Z,6.82
2022-11-25T07:33:15.333Z,6.87
2022-11-25T07:35:43.275Z,6.96
2022-11-25T07:38:10.991Z,6.92
2022-11-25T07:40:38.740Z,7.05
2022-11-25T07:43:06.460Z,7.09
2022-11-25T07:45:35.553Z,7.15
2022-11-25T07:48:08.533Z,7.26
2022-11-25T07:50:36.374Z,7.23
2022-11-25T07:53:04.216Z,7.35
2022-11-25T07:55:32.112Z,7.48
2022-11-25T07:58:00.305Z,7.53
2022-11-25T08:00:28.708Z,7.54
2022-11-25T08:03:18.167Z,7.44
2022-11-25T08:05:46.177Z,7.58
2022-11-25T08:08:14.173Z,7.59
2022-11-25T08:10:42.039Z,7.50
2022-11-25T08:13:09.864Z,7.70
2022-11-25T08:15:37.876Z,7.66
2022-11-25T08:18:06.029Z,7.76
2022-11-25T08:20:35.209Z,7.80
2022-11-25T08:23:03.084Z,7.86
2022-11-25T08:25:31.743Z,7.95
2022-11-25T08:28:00.780Z,7.81
2022-11-25T08:30:28.648Z,8.08
2022-11-25T08:32:58.075Z,7.98
2022-11-25T08:35:25.932Z,7.93
2022-11-25T08:37:55.549Z,8.18
2022-11-25T08:40:23.516Z,7.98
2022-11-25T08:42:51.447Z,8.03
2022-11-25T08:45:19.276Z,8.06
2022-11-25T08:47:47.665Z,8.21
2022-11-25T08:50:17.192Z,8.28
2022-11-25T08:52:45.135Z,8.31
2022-11-25T08:55:14.813Z,8.39
2022-11-25T08:57:42.867Z,8.27
2022-11-25T09:00:12.460Z,8.33
2022-11-25T09:02:40.303Z,8.36
2022-11-25T09:05:08.512Z,8.49
2022-11-25T09:07:36.372Z,8.54
2022-11-25T09:10:04.751Z,8.58
2022-11-25T09:12:36.021Z,8.49
2022-11-25T09:15:03.871Z,8.50
2022-11-25T09:17:31.697Z,8.42
2022-11-25T09:19:59.641Z,8.50
2022-11-25T09:22:30.994Z,8.28
2022-11-25T09:24:58.978Z,8.48
2022-11-25T09:27:26.761Z,14.70
2022-11-25T09:29:55.945Z,15.38
2022-11-25T09:32:23.795Z,22.13
2022-11-25T09:34:51.615Z,23.76
2022-11-25T09:37:19.353Z,19.49
2022-11-25T09:39:47.248Z,14.48
2022-11-25T09:42:43.858Z,13.22
2022-11-25T09:45:38.303Z,12.78
2022-11-25T09:48:22.960Z,12.87
2022-11-25T09:51:03.327Z,12.75
2022-11-25T09:53:43.045Z,12.61
2022-11-25T09:56:20.740Z,12.58
2022-11-25T09:58:53.378Z,12.54
2022-11-25T10:01:26.430Z,12.43
2022-11-25T10:04:03.561Z,12.35
2022-11-25T10:06:40.227Z,12.61
2022-11-25T10:09:15.017Z,12.34
2022-11-25T10:11:52.511Z,12.95
2022-11-25T10:14:32.953Z,12.66
2022-11-25T10:17:11.680Z,12.77
2022-11-25T10:20:00.210Z,12.86
2022-11-25T10:22:31.252Z,13.42
2022-11-25T10:25:02.821Z,13.04
2022-11-25T10:27:44.002Z,12.60
2022-11-25T10:30:18.215Z,12.91
2022-11-25T10:33:02.135Z,13.48
2022-11-25T10:35:38.029Z,13.92
2022-11-25T10:38:20.558Z,13.75
2022-11-25T10:40:53.939Z,14.20
2022-11-25T10:43:36.044Z,14.25
2022-11-25T10:46:13.699Z,13.96
2022-11-25T10:49:03.791Z,14.08
2022-11-25T10:51:47.183Z,13.87
2022-11-25T10:54:27.651Z,14.40
2022-11-25T10:56:58.379Z,14.35
2022-11-25T10:59:37.758Z,14.37
2022-11-25T11:02:19.337Z,13.92
2022-11-25T11:04:56.914Z,13.68
2022-11-25T11:07:28.195Z,13.97
2022-11-25T11:10:17.521Z,14.38
2022-11-25T11:12:56.971Z,14.40
2022-11-25T11:15:27.011Z,14.36
2022-11-25T11:17:55.718Z,14.10
2022-11-25T11:20:27.318Z,14.27
2022-11-25T11:23:07.032Z,14.46
2022-11-25T11:25:38.713Z,14.17
2022-11-25T11:28:27.634Z,13.76
2022-11-25T11:30:58.431Z,14.05
2022-11-25T11:33:34.898Z,14.28
2022-11-25T11:36:16.979Z,14.85
2022-11-25T11:38:53.617Z,15.15
2022-11-25T11:41:32.668Z,15.15
2022-11-25T11:44:10.190Z,14.39
2022-11-25T11:47:04.974Z,14.89
2022-11-25T11:50:00.152Z,15.21
2022-11-25T11:52:41.864Z,14.46
2022-11-25T11:55:30.427Z,15.01
2022-11-25T11:58:09.654Z,14.53
2022-11-25T12:00:48.103Z,15.10
2022-11-25T12:03:20.566Z,15.60
2022-11-25T12:05:55.269Z,15.16
2022-11-25T12:08:32.575Z,15.33
2022-11-25T12:11:05.756Z,15.48
2022-11-25T12:13:41.802Z,15.25
2022-11-25T12:16:14.662Z,15.52
2022-11-25T12:18:50.030Z,15.58
2022-11-25T12:21:40.209Z,16.07
2022-11-25T12:24:22.728Z,15.92
2022-11-25T12:26:56.860Z,16.24
2022-11-25T12:29:34.219Z,16.48
2022-11-25T12:32:28.641Z,16.29
2022-11-25T12:35:02.331Z,16.35
2022-11-25T12:37:35.484Z,16.27
2022-11-25T12:40:14.957Z,16.33
2022-11-25T12:42:45.865Z,16.72
2022-11-25T12:45:21.416Z,17.98
2022-11-25T12:47:49.650Z,18.01
2022-11-25T12:50:19.173Z,17.36
2022-11-25T12:52:57.544Z,16.61
2022-11-25T12:55:27.977Z,15.64
2022-11-25T12:58:37.410Z,15.26
2022-11-25T13:01:26.907Z,15.04
2022-11-25T13:04:28.340Z,14.69
2022-11-25T13:07:32.022Z,14.69
2022-11-25T13:10:26.417Z,14.70
2022-11-25T13:13:19.777Z,14.56
2022-11-25T13:15:50.020Z,14.48
2022-11-25T13:18:22.529Z,14.63
2022-11-25T13:20:52.552Z,14.68
2022-11-25T13:23:43.392Z,14.66
2022-11-25T13:26:49.227Z,14.71
2022-11-25T13:30:02.947Z,14.63
2022-11-25T13:32:41.258Z,14.65
2022-11-25T13:35:37.974Z,14.53
2022-11-25T13:38:31.604Z,14.71
2022-11-25T13:41:00.442Z,14.78
2022-11-25T13:43:28.769Z,14.88
2022-11-25T13:45:57.469Z,15.05
2022-11-25T13:48:29.070Z,15.11
2022-11-25T13:51:16.163Z,15.00
2022-11-25T13:53:52.965Z,15.16
2022-11-25T13:56:32.533Z,15.14
2022-11-25T13:59:36.780Z,15.40
2022-11-25T14:02:45.084Z,15.15
2022-11-25T14:05:43.019Z,14.91
2022-11-25T14:08:22.104Z,15.07
2022-11-25T14:11:01.183Z,15.14
2022-11-25T14:13:50.607Z,15.14
2022-11-25T14:16:34.764Z,15.13
2022-11-25T14:19:50.091Z,14.76
2022-11-25T14:22:33.088Z,14.70
2022-11-25T14:25:17.496Z,14.96
2022-11-25T14:27:47.847Z,15.05
2022-11-25T14:30:17.484Z,15.51
2022-11-25T14:32:48.940Z,15.82
2022-11-25T14:35:19.767Z,15.66
2022-11-25T14:37:52.265Z,15.36
2022-11-25T14:40:26.799Z,15.19
2022-11-25T14:43:03.337Z,14.83
2022-11-25T14:45:38.180Z,14.72
2022-11-25T14:48:35.648Z,14.71
2022-11-25T14:51:09.682Z,14.70
2022-11-25T14:53:48.248Z,14.65
2022-11-25T14:56:22.432Z,14.46
2022-11-25T14:58:52.987Z,14.42
2022-11-25T15:01:23.570Z,14.49
2022-11-25T15:04:03.875Z,14.56
2022-11-25T15:06:35.580Z,14.45
2022-11-25T15:09:20.312Z,14.54
2022-11-25T15:11:51.377Z,14.09
2022-11-25T15:14:26.724Z,14.06
2022-11-25T15:16:56.181Z,14.10
2022-11-25T15:19:33.273Z,14.01
2022-11-25T15:24:55.829Z,13.79
2022-11-25T15:27:26.199Z,13.65
2022-11-25T15:29:56.664Z,13.71
2022-11-25T15:32:27.759Z,13.58
2022-11-25T15:34:58.706Z,13.47
2022-11-25T15:37:26.813Z,13.47
2022-11-25T15:40:28.067Z,13.31
2022-11-25T15:42:57.843Z,13.04
2022-11-25T15:45:28.426Z,13.06
2022-11-25T15:47:57.608Z,12.99
2022-11-25T15:50:27.916Z,12.94
2022-11-25T15:53:01.084Z,12.82
2022-11-25T15:55:33.805Z,12.96
2022-11-25T15:58:07.879Z,12.78
2022-11-25T16:00:36.915Z,12.77
2022-11-25T16:03:05.226Z,12.82
2022-11-25T16:05:38.144Z,12.65
2022-11-25T16:08:29.992Z,12.69
2022-11-25T16:11:00.541Z,12.65
2022-11-25T16:13:33.318Z,12.57
2022-11-25T16:16:10.029Z,12.82
2022-11-25T16:18:41.725Z,12.63
2022-11-25T16:21:12.747Z,12.72
2022-11-25T16:23:45.199Z,12.90
2022-11-25T16:26:21.247Z,13.00
2022-11-25T16:28:55.805Z,13.04
2022-11-25T16:31:24.950Z,13.13
2022-11-25T16:33:55.273Z,13.04
2022-11-25T16:36:23.135Z,13.31
2022-11-25T16:38:54.614Z,13.13
2022-11-25T16:41:24.980Z,13.17
2022-11-25T16:43:59.316Z,13.37
2022-11-25T16:46:28.733Z,13.32
2022-11-25T16:48:56.704Z,13.32
2022-11-25T16:51:25.855Z,13.49
2022-11-25T16:53:53.801Z,13.66
2022-11-25T16:56:25.698Z,13.76
2022-11-25T16:58:55.815Z,13.70
2022-11-25T17:01:25.784Z,13.72
2022-11-25T17:03:53.743Z,13.79
2022-11-25T17:06:24.516Z,13.62
2022-11-25T17:08:53.211Z,13.52
2022-11-25T17:11:25.077Z,13.87
2022-11-25T17:13:55.431Z,13.90
2022-11-25T17:16:26.371Z,13.78
2022-11-25T17:18:56.007Z,13.89
2022-11-25T17:21:27.032Z,13.79
2022-11-25T17:23:55.706Z,13.96
2022-11-25T17:26:27.332Z,13.93
2022-11-25T17:29:00.340Z,13.68
2022-11-25T17:31:30.776Z,13.61
2022-11-25T17:33:58.853Z,13.53
2022-11-25T17:36:26.759Z,13.34
2022-11-25T17:38:55.091Z,13.52
2022-11-25T17:41:26.776Z,13.64
2022-11-25T17:43:56.742Z,13.44
2022-11-25T17:46:29.367Z,13.42
2022-11-25T17:48:57.387Z,13.68
2022-11-25T17:51:25.226Z,13.74
2022-11-25T17:53:53.340Z,13.70
2022-11-25T17:56:30.081Z,13.50
2022-11-25T17:59:03.733Z,13.50
2022-11-25T18:01:31.938Z,13.53
2022-11-25T18:03:59.731Z,13.57
2022-11-25T18:06:27.572Z,13.56
2022-11-25T18:08:55.364Z,13.50
2022-11-25T18:11:23.237Z,13.49
2022-11-25T18:13:51.599Z,13.48
2022-11-25T18:16:23.604Z,13.71
2022-11-25T18:18:51.526Z,13.83
2022-11-25T18:21:19.952Z,13.83
2022-11-25T18:23:47.729Z,13.97
2022-11-25T18:26:15.814Z,14.23
2022-11-25T18:28:43.789Z,14.12
2022-11-25T18:31:12.751Z,14.20
2022-11-25T18:33:41.929Z,14.25
2022-11-25T18:36:14.086Z,14.22
2022-11-25T18:38:42.035Z,14.05
2022-11-25T18:41:20.276Z,13.90
2022-11-25T18:43:48.348Z,14.25
2022-11-25T18:46:16.399Z,14.31
2022-11-25T18:48:45.920Z,14.39
2022-11-25T18:51:15.778Z,14.33
2022-11-25T18:53:43.646Z,14.29
2022-11-25T18:56:17.633Z,14.26
2022-11-25T18:58:49.713Z,14.39
2022-11-25T19:01:24.471Z,14.40
2022-11-25T19:03:55.301Z,14.52
2022-11-25T19:06:23.935Z,14.52
2022-11-25T19:08:53.265Z,14.44
2022-11-25T19:11:29.783Z,14.46
2022-11-25T19:14:03.899Z,14.40
2022-11-25T19:16:31.925Z,14.48
2022-11-25T19:19:01.255Z,14.57
2022-11-25T19:21:31.053Z,14.51
2022-11-25T19:23:59.582Z,14.58
2022-11-25T19:26:31.755Z,14.42
2022-11-25T19:29:03.716Z,14.25
2022-11-25T19:31:34.028Z,14.17
2022-11-25T19:34:03.939Z,14.27
2022-11-25T19:36:31.806Z,14.41
2022-11-25T19:39:00.157Z,14.38
2022-11-25T19:41:28.013Z,14.22
2022-11-25T19:43:55.857Z,14.26
2022-11-25T19:46:33.043Z,14.06
2022-11-25T19:49:06.967Z,14.11
2022-11-25T19:51:35.827Z,14.12
2022-11-25T19:54:03.782Z,14.42
2022-11-25T19:56:31.578Z,13.88
2022-11-25T19:58:59.387Z,13.86
2022-11-25T20:01:33.991Z,13.89
2022-11-25T20:04:03.385Z,13.90
2022-11-25T20:06:33.572Z,13.90
2022-11-25T20:09:07.517Z,13.94
2022-11-25T20:11:36.836Z,14.05
2022-11-25T20:14:05.340Z,14.09
2022-11-25T20:16:39.729Z,14.01
2022-11-25T20:19:08.602Z,14.14
2022-11-25T20:21:41.512Z,13.92
2022-11-25T20:24:15.176Z,13.58
2022-11-25T20:26:45.947Z,13.63
2022-11-25T20:29:17.395Z,13.63
2022-11-25T20:31:46.285Z,13.47
2022-11-25T20:34:14.814Z,13.48
2022-11-25T20:36:45.371Z,13.50
2022-11-25T20:39:18.821Z,13.38
2022-11-25T20:41:50.067Z,13.48
2022-11-25T20:44:18.527Z,13.44
2022-11-25T20:46:46.395Z,13.42
2022-11-25T20:49:22.888Z,13.45
2022-11-25T20:51:52.128Z,13.26
2022-11-25T20:54:20.035Z,13.37
2022-11-25T20:56:47.980Z,13.63
2022-11-25T20:59:21.613Z,13.64
2022-11-25T21:01:50.336Z,13.68
2022-11-25T21:04:18.477Z,13.64
2022-11-25T21:06:46.491Z,13.85
2022-11-25T21:09:20.072Z,13.88
2022-11-25T21:11:48.268Z,13.43
2022-11-25T21:14:18.055Z,13.50
2022-11-25T21:16:54.058Z,13.57
2022-11-25T21:19:22.176Z,13.49
2022-11-25T21:21:51.769Z,13.42
2022-11-25T21:24:33.039Z,13.60
2022-11-25T21:27:08.766Z,13.21
2022-11-25T21:29:40.728Z,13.09
2022-11-25T21:32:20.246Z,13.08
2022-11-25T21:34:48.150Z,12.82
2022-11-25T21:37:16.491Z,12.86
2022-11-25T21:39:45.859Z,12.79
2022-11-25T21:42:20.048Z,12.77
2022-11-25T21:44:49.888Z,12.70
2022-11-25T21:47:20.138Z,12.72
2022-11-25T21:49:48.292Z,12.51
2022-11-25T21:52:16.166Z,12.59
2022-11-25T21:54:45.663Z,12.52
2022-11-25T21:57:17.062Z,12.47
2022-11-25T21:59:46.694Z,12.47
2022-11-25T22:02:20.021Z,12.68
2022-11-25T22:04:48.200Z,12.62
2022-11-25T22:07:16.002Z,12.49
2022-11-25T22:09:45.486Z,12.38
2022-11-25T22:12:27.441Z,12.72
2022-11-25T22:14:56.065Z,12.66
2022-11-25T22:17:24.088Z,12.33
2022-11-25T22:19:52.078Z,12.44
2022-11-25T22:22:20.158Z,12.59
2022-11-25T22:24:49.484Z,12.58
2022-11-25T22:27:22.344Z,12.61
2022-11-25T22:29:51.483Z,12.61
2022-11-25T22:32:19.972Z,12.67
2022-11-25T22:34:50.478Z,12.72
2022-11-25T22:37:20.171Z,12.62
2022-11-25T22:39:50.002Z,12.64
2022-11-25T22:42:25.593Z,12.56
2022-11-25T22:44:56.509Z,12.52
2022-11-25T22:47:31.667Z,12.39
2022-11-25T22:50:01.576Z,12.45
2022-11-25T22:52:31.986Z,12.33
2022-11-25T22:55:04.321Z,12.49
2022-11-25T22:57:32.359Z,12.51
2022-11-25T23:00:00.190Z,12.43
2022-11-25T23:02:33.419Z,12.24
2022-11-25T23:05:01.520Z,12.50
2022-11-25T23:07:29.565Z,12.36
2022-11-25T23:09:57.481Z,12.46
2022-11-25T23:12:26.803Z,12.38
2022-11-25T23:14:54.621Z,12.45
2022-11-25T23:17:25.071Z,12.56
2022-11-25T23:19:53.447Z,12.45
2022-11-25T23:22:21.526Z,12.31
2022-11-25T23:24:51.185Z,12.32
2022-11-25T23:27:19.140Z,12.32
2022-11-25T23:29:48.305Z,12.37
2022-11-25T23:32:19.091Z,12.31
2022-11-25T23:34:47.267Z,12.17
2022-11-25T23:37:15.576Z,12.16
2022-11-25T23:39:43.964Z,12.10
2022-11-25T23:42:17.803Z,12.27
2022-11-25T23:44:45.829Z,12.16
2022-11-25T23:47:18.648Z,12.09
2022-11-25T23:49:49.722Z,12.15
2022-11-25T23:52:21.037Z,12.25
2022-11-25T23:54:50.574Z,12.30
2022-11-25T23:57:20.558Z,12.30
2022-11-25T23:59:49.190Z,12.34
